createdAt,value
2018-03-08T00:00:50.590Z,99490.00
2018-03-08T00:03:20.438Z,99500.98
2018-03-08T00:05:49.556Z,99498.59
2018-03-08T00:08:18.664Z,99502.98
2018-03-08T00:10:47.741Z,99508.65
2018-03-08T00:13:16.893Z,99508.17
2018-03-08T00:15:46.697Z,99510.86
2018-03-08T00:18:16.579Z,99516.67
2018-03-08T00:20:45.655Z,99517.03
2018-03-08T00:23:14.768Z,99514.47
2018-03-08T00:25:43.833Z,99515.36
2018-03-08T00:28:12.950Z,99522.13
2018-03-08T00:30:43.718Z,99517.17
2018-03-08T00:33:12.785Z,99520.72
2018-03-08T00:35:41.873Z,99521.78
2018-03-08T00:38:10.956Z,99519.27
2018-03-08T00:40:40.057Z,99525.98
2018-03-08T00:43:09.132Z,99530.00
2018-03-08T00:45:38.215Z,99526.63
2018-03-08T00:48:07.317Z,99532.78
2018-03-08T00:50:36.421Z,99530.52
2018-03-08T00:53:05.517Z,99533.38
2018-03-08T00:55:34.602Z,99531.23
2018-03-08T00:58:03.880Z,99535.95
2018-03-08T01:00:32.946Z,99534.37
2018-03-08T01:03:03.550Z,99535.88
2018-03-08T01:05:32.631Z,99542.36
2018-03-08T01:08:01.740Z,99541.95
2018-03-08T01:10:30.898Z,99534.43
2018-03-08T01:13:00.745Z,99546.67
2018-03-08T01:15:29.840Z,99548.64
2018-03-08T01:17:58.941Z,99544.09
2018-03-08T01:20:28.024Z,99540.13
2018-03-08T01:22:57.137Z,99549.69
2018-03-08T01:25:26.206Z,99547.23
2018-03-08T01:27:56.079Z,99549.53
2018-03-08T01:30:25.175Z,99556.70
2018-03-08T01:32:54.276Z,99548.36
2018-03-08T01:35:23.347Z,99549.89
2018-03-08T01:37:53.210Z,99554.91
2018-03-08T01:40:23.070Z,99550.81
2018-03-08T01:42:52.170Z,99553.02
2018-03-08T01:45:21.255Z,99549.47
2018-03-08T01:47:50.351Z,99558.00
2018-03-08T01:50:19.462Z,99548.26
2018-03-08T01:52:48.526Z,99559.23
2018-03-08T01:55:17.619Z,99564.77
2018-03-08T01:57:46.718Z,99559.84
2018-03-08T02:00:15.801Z,99557.02
2018-03-08T02:02:44.882Z,99559.97
2018-03-08T02:05:14.744Z,99565.09
2018-03-08T02:07:43.826Z,99560.67
2018-03-08T02:10:12.919Z,99568.31
2018-03-08T02:12:42.003Z,99573.20
2018-03-08T02:15:11.856Z,99567.21
2018-03-08T02:17:40.952Z,99573.14
2018-03-08T02:20:10.033Z,99569.20
2018-03-08T02:22:39.130Z,99575.20
2018-03-08T02:25:08.227Z,99582.02
2018-03-08T02:27:37.337Z,99587.78
2018-03-08T02:30:06.411Z,99597.13
2018-03-08T02:32:35.511Z,99595.09
2018-03-08T02:35:04.584Z,99599.98
2018-03-08T02:37:33.686Z,99605.45
2018-03-08T02:40:02.770Z,99595.30
2018-03-08T02:42:31.889Z,99600.78
2018-03-08T02:45:00.957Z,99597.28
2018-03-08T02:47:30.056Z,99598.27
2018-03-08T02:49:59.143Z,99602.52
2018-03-08T02:52:29.021Z,99604.23
2018-03-08T02:54:58.088Z,99604.98
2018-03-08T02:57:27.194Z,99604.92
2018-03-08T02:59:56.912Z,99597.13
2018-03-08T03:02:25.994Z,99601.95
2018-03-08T03:04:55.085Z,99602.13
2018-03-08T03:07:24.171Z,99598.50
2018-03-08T03:09:53.324Z,99609.18
2018-03-08T03:12:22.367Z,99606.37
2018-03-08T03:14:51.464Z,99604.45
2018-03-08T03:17:20.558Z,99600.41
2018-03-08T03:19:49.657Z,99613.13
2018-03-08T03:22:18.725Z,99605.96
2018-03-08T03:24:47.833Z,99613.01
2018-03-08T03:27:16.906Z,99610.05
2018-03-08T03:29:46.777Z,99609.52
2018-03-08T03:32:15.852Z,99603.82
2018-03-08T03:34:44.960Z,99607.73
2018-03-08T03:37:14.043Z,99604.11
2018-03-08T03:39:43.139Z,99604.19
2018-03-08T03:42:12.241Z,99602.25
2018-03-08T03:44:41.318Z,99607.90
2018-03-08T03:47:10.416Z,99602.00
2018-03-08T03:49:39.516Z,99608.94
2018-03-08T03:52:08.637Z,99604.98
2018-03-08T03:54:37.714Z,99623.58
2018-03-08T03:57:06.827Z,99616.97
2018-03-08T03:59:35.939Z,99612.31
2018-03-08T04:02:05.063Z,99632.27
2018-03-08T04:04:34.141Z,99624.03
2018-03-08T04:07:03.228Z,99623.65
2018-03-08T04:09:32.321Z,99627.55
2018-03-08T04:12:01.393Z,99632.52
2018-03-08T04:14:30.495Z,99630.99
2018-03-08T04:16:59.581Z,99627.22
2018-03-08T04:19:28.671Z,99631.41
2018-03-08T04:21:57.752Z,99625.69
2018-03-08T04:24:26.862Z,99633.00
2018-03-08T04:26:55.944Z,99633.97
2018-03-08T04:29:25.050Z,99633.17
2018-03-08T04:31:54.149Z,99626.52
2018-03-08T04:34:23.238Z,99635.78
2018-03-08T04:36:52.337Z,99633.73
2018-03-08T04:39:22.242Z,99620.33
2018-03-08T04:41:51.313Z,99618.93
2018-03-08T04:44:21.177Z,99621.52
2018-03-08T04:46:50.250Z,99623.59
2018-03-08T04:49:19.376Z,99627.49
2018-03-08T04:51:48.438Z,99629.02
2018-03-08T04:54:17.538Z,99635.36
2018-03-08T04:56:46.638Z,99627.05
2018-03-08T04:59:15.815Z,99633.05
2018-03-08T05:01:44.926Z,99639.34
2018-03-08T05:04:13.998Z,99637.95
2018-03-08T05:06:43.908Z,99650.47
2018-03-08T05:09:12.970Z,99651.00
2018-03-08T05:11:42.065Z,99649.51
2018-03-08T05:14:11.146Z,99649.89
2018-03-08T05:16:40.252Z,99653.92
2018-03-08T05:19:09.349Z,99655.10
2018-03-08T05:21:38.443Z,99648.25
2018-03-08T05:24:07.528Z,99650.87
2018-03-08T05:26:36.630Z,99651.83
2018-03-08T05:29:05.709Z,99650.60
2018-03-08T05:31:34.794Z,99657.06
2018-03-08T05:34:03.895Z,99655.79
2018-03-08T05:36:33.778Z,99657.36
2018-03-08T05:39:03.616Z,99664.14
2018-03-08T05:41:32.701Z,99670.83
2018-03-08T05:44:01.809Z,99677.47
2018-03-08T05:46:30.889Z,99673.35
2018-03-08T05:49:00.791Z,99675.98
2018-03-08T05:51:29.873Z,99674.67
2018-03-08T05:54:00.477Z,99684.34
2018-03-08T05:56:29.553Z,99694.22
2018-03-08T05:58:58.662Z,99708.60
2018-03-08T06:01:27.794Z,99710.94
2018-03-08T06:03:56.880Z,99705.44
2018-03-08T06:06:26.013Z,99699.95
2018-03-08T06:08:55.853Z,99685.97
2018-03-08T06:11:24.966Z,99690.08
2018-03-08T06:13:54.049Z,99691.70
2018-03-08T06:16:23.154Z,99689.35
2018-03-08T06:18:52.242Z,99681.45
2018-03-08T06:21:21.353Z,99679.67
2018-03-08T06:23:50.452Z,99685.00
2018-03-08T06:26:19.547Z,99691.52
2018-03-08T06:28:48.653Z,99695.63
2018-03-08T06:31:17.753Z,99697.80
2018-03-08T06:33:46.826Z,99699.47
2018-03-08T06:36:15.936Z,99695.77
2018-03-08T06:38:45.017Z,99691.17
2018-03-08T06:41:14.129Z,99693.53
2018-03-08T06:43:43.206Z,99699.19
2018-03-08T06:46:12.315Z,99702.23
2018-03-08T06:48:42.182Z,99703.41
2018-03-08T06:51:11.310Z,99696.61
2018-03-08T06:53:40.390Z,99700.12
2018-03-08T06:56:09.492Z,99703.77
2018-03-08T06:58:38.575Z,99700.62
2018-03-08T07:01:07.701Z,99709.35
2018-03-08T07:03:36.770Z,99703.50
2018-03-08T07:06:05.870Z,99706.13
2018-03-08T07:08:34.952Z,99706.37
2018-03-08T07:11:04.038Z,99714.59
2018-03-08T07:13:33.900Z,99707.43
2018-03-08T07:16:03.021Z,99707.31
2018-03-08T07:18:32.110Z,99695.66
2018-03-08T07:21:01.226Z,99703.66
2018-03-08T07:23:31.081Z,99701.73
2018-03-08T07:26:00.163Z,99707.70
2018-03-08T07:28:29.292Z,99703.90
2018-03-08T07:30:58.350Z,99699.78
2018-03-08T07:33:27.458Z,99692.24
2018-03-08T07:35:56.563Z,99704.58
2018-03-08T07:38:25.662Z,99694.59
2018-03-08T07:40:54.743Z,99698.95
2018-03-08T07:43:23.858Z,99703.23
2018-03-08T07:45:52.930Z,99700.31
2018-03-08T07:48:22.026Z,99697.05
2018-03-08T07:50:51.141Z,99698.80
2018-03-08T07:53:20.233Z,99704.97
2018-03-08T07:55:49.316Z,99712.40
2018-03-08T07:58:18.401Z,99701.35
2018-03-08T08:00:47.541Z,99701.63
2018-03-08T08:03:16.623Z,99702.63
2018-03-08T08:06:03.454Z,99703.58
2018-03-08T08:08:50.216Z,99701.88
2018-03-08T08:11:19.325Z,99705.41
2018-03-08T08:13:48.465Z,99710.22
2018-03-08T08:16:18.336Z,99707.59
2018-03-08T08:18:47.430Z,99711.14
2018-03-08T08:21:16.543Z,99706.51
2018-03-08T08:23:45.615Z,99702.97
2018-03-08T08:26:14.742Z,99713.75
2018-03-08T08:28:43.834Z,99710.09
2018-03-08T08:31:12.945Z,99712.80
2018-03-08T08:33:42.051Z,99713.47
2018-03-08T08:36:11.175Z,99716.21
2018-03-08T08:38:41.050Z,99711.08
2018-03-08T08:41:10.144Z,99713.03
2018-03-08T08:43:40.034Z,99718.55
2018-03-08T08:46:09.097Z,99711.08
2018-03-08T08:48:38.970Z,99713.59
2018-03-08T08:51:08.067Z,99715.05
2018-03-08T08:53:37.151Z,99719.05
2018-03-08T08:56:06.241Z,99715.19
2018-03-08T08:58:35.335Z,99712.11
2018-03-08T09:01:04.415Z,99707.88
2018-03-08T09:03:33.537Z,99707.62
2018-03-08T09:06:02.607Z,99713.82
2018-03-08T09:08:31.715Z,99710.13
2018-03-08T09:11:00.829Z,99709.03
2018-03-08T09:13:29.894Z,99713.69
2018-03-08T09:15:58.993Z,99705.09
2018-03-08T09:18:28.107Z,99701.69
2018-03-08T09:20:57.219Z,99701.67
2018-03-08T09:23:26.357Z,99689.19
2018-03-08T09:25:56.233Z,99689.53
2018-03-08T09:28:26.142Z,99687.05
2018-03-08T09:30:55.989Z,99692.25
2018-03-08T09:33:25.855Z,99686.46
2018-03-08T09:35:54.952Z,99682.11
2018-03-08T09:38:24.042Z,99682.88
2018-03-08T09:40:53.171Z,99682.89
2018-03-08T09:43:22.289Z,99685.60
2018-03-08T09:45:51.421Z,99672.89
2018-03-08T09:48:20.497Z,99680.56
2018-03-08T09:50:49.605Z,99681.92
2018-03-08T09:53:18.693Z,99674.91
2018-03-08T09:55:47.816Z,99670.65
2018-03-08T09:58:16.913Z,99675.02
2018-03-08T10:00:46.989Z,99677.14
2018-03-08T10:03:16.885Z,99666.75
2018-03-08T10:05:45.975Z,99666.81
2018-03-08T10:08:15.068Z,99655.33
2018-03-08T10:10:44.206Z,99646.92
2018-03-08T10:13:14.116Z,99661.98
2018-03-08T10:15:43.156Z,99649.23
2018-03-08T10:18:12.268Z,99637.80
2018-03-08T10:20:41.364Z,99640.64
2018-03-08T10:23:10.496Z,99627.64
2018-03-08T10:25:40.348Z,99626.25
2018-03-08T10:28:09.458Z,99636.45
2018-03-08T10:30:38.543Z,99643.96
2018-03-08T10:33:07.641Z,99637.07
2018-03-08T10:35:36.733Z,99634.77
2018-03-08T10:38:05.831Z,99625.97
2018-03-08T10:43:04.056Z,99618.88
2018-03-08T10:45:33.169Z,99617.76
2018-03-08T10:48:03.054Z,99622.81
2018-03-08T10:50:32.160Z,99612.05
2018-03-08T10:53:01.266Z,99617.67
2018-03-08T10:55:31.154Z,99609.26
2018-03-08T10:58:00.280Z,99608.19
2018-03-08T11:00:35.781Z,99617.61
2018-03-08T11:03:07.013Z,99612.02
2018-03-08T11:05:42.194Z,99605.48
2018-03-08T11:08:11.290Z,99605.31
2018-03-08T11:10:40.391Z,99605.31
2018-03-08T11:13:10.250Z,99603.38
2018-03-08T11:15:39.338Z,99614.59
2018-03-08T11:18:08.437Z,99605.33
2018-03-08T11:20:37.522Z,99607.08
2018-03-08T11:23:06.645Z,99605.50
2018-03-08T11:25:35.722Z,99607.21
2018-03-08T11:28:04.845Z,99599.97
2018-03-08T11:30:33.945Z,99598.08
2018-03-08T11:33:03.078Z,99594.55
2018-03-08T11:35:32.953Z,99595.56
2018-03-08T11:38:02.074Z,99599.09
2018-03-08T11:40:31.186Z,99596.13
2018-03-08T11:43:00.298Z,99594.14
2018-03-08T11:45:30.145Z,99592.69
2018-03-08T11:47:59.258Z,99581.05
2018-03-08T11:50:28.343Z,99593.91
2018-03-08T11:52:57.439Z,99573.60
2018-03-08T11:55:26.585Z,99576.39
2018-03-08T11:57:55.681Z,99567.76
2018-03-08T12:00:25.591Z,99564.34
2018-03-08T12:02:55.470Z,99560.44
2018-03-08T12:05:24.577Z,99544.50
2018-03-08T12:07:53.678Z,99533.78
2018-03-08T12:10:22.798Z,99536.18
2018-03-08T12:12:52.670Z,99524.69
2018-03-08T12:15:21.787Z,99529.84
2018-03-08T12:17:50.899Z,99521.81
2018-03-08T12:20:20.783Z,99524.48
2018-03-08T12:22:50.675Z,99522.47
2018-03-08T12:25:19.777Z,99519.38
2018-03-08T12:27:48.870Z,99518.27
2018-03-08T12:30:17.977Z,99510.73
2018-03-08T12:32:47.067Z,99512.89
2018-03-08T12:35:16.163Z,99503.78
2018-03-08T12:37:45.292Z,99506.44
2018-03-08T12:40:14.394Z,99500.69
2018-03-08T12:42:44.278Z,99494.22
2018-03-08T12:45:13.373Z,99497.69
2018-03-08T12:47:42.502Z,99497.05
2018-03-08T12:50:12.359Z,99485.84
2018-03-08T12:52:41.478Z,99484.67
2018-03-08T12:55:10.591Z,99480.95
2018-03-08T12:57:39.714Z,99474.30
2018-03-08T13:00:09.587Z,99461.99
2018-03-08T13:02:39.334Z,99456.70
2018-03-08T13:05:09.230Z,99461.05
2018-03-08T13:07:38.344Z,99459.45
2018-03-08T13:10:07.494Z,99461.47
2018-03-08T13:12:36.578Z,99449.22
2018-03-08T13:15:06.472Z,99442.53
2018-03-08T13:17:36.341Z,99439.57
2018-03-08T13:20:05.455Z,99431.98
2018-03-08T13:22:34.549Z,99430.47
2018-03-08T13:25:03.668Z,99422.55
2018-03-08T13:27:33.541Z,99426.53
2018-03-08T13:30:02.637Z,99424.45
2018-03-08T13:32:31.756Z,99420.22
2018-03-08T13:35:00.870Z,99415.80
2018-03-08T13:37:30.740Z,99417.25
2018-03-08T13:39:59.863Z,99417.47
2018-03-08T13:42:28.958Z,99407.05
2018-03-08T13:44:58.047Z,99388.38
2018-03-08T13:47:27.179Z,99391.38
2018-03-08T13:49:57.065Z,99389.94
2018-03-08T13:52:26.225Z,99391.25
2018-03-08T13:54:56.074Z,99393.19
2018-03-08T13:57:25.173Z,99385.02
2018-03-08T13:59:54.302Z,99371.13
2018-03-08T14:02:23.426Z,99366.71
2018-03-08T14:04:52.504Z,99365.36
2018-03-08T14:07:21.658Z,99365.98
2018-03-08T14:09:50.778Z,99360.87
2018-03-08T14:12:20.663Z,99343.92
2018-03-08T14:14:49.817Z,99350.34
2018-03-08T14:17:18.940Z,99346.33
2018-03-08T14:19:48.172Z,99333.06
2018-03-08T14:22:17.292Z,99325.25
2018-03-08T14:24:46.407Z,99321.19
2018-03-08T14:27:15.529Z,99331.19
2018-03-08T14:29:44.651Z,99310.34
2018-03-08T14:32:13.751Z,99304.19
2018-03-08T14:34:43.380Z,99300.98
2018-03-08T14:37:13.245Z,99306.17
2018-03-08T14:39:42.363Z,99303.59
2018-03-08T14:42:11.535Z,99297.77
2018-03-08T14:44:40.571Z,99296.80
2018-03-08T14:47:10.438Z,99286.72
2018-03-08T14:49:39.555Z,99291.09
2018-03-08T14:52:08.641Z,99288.22
2018-03-08T14:54:37.747Z,99282.14
2018-03-08T14:57:06.839Z,99275.67
2018-03-08T14:59:35.958Z,99271.83
2018-03-08T15:02:05.824Z,99273.11
2018-03-08T15:04:35.038Z,99266.31
2018-03-08T15:07:04.479Z,99261.41
2018-03-08T15:09:34.369Z,99270.05
2018-03-08T15:12:05.890Z,99271.59
2018-03-08T15:14:34.983Z,99267.72
2018-03-08T15:17:04.079Z,99267.22
2018-03-08T15:19:33.191Z,99263.39
2018-03-08T15:22:02.378Z,99249.47
2018-03-08T15:24:31.455Z,99244.22
2018-03-08T15:27:00.577Z,99244.92
2018-03-08T15:29:29.690Z,99246.16
2018-03-08T15:31:58.786Z,99238.64
2018-03-08T15:34:27.902Z,99249.55
2018-03-08T15:36:57.781Z,99239.92
2018-03-08T15:39:26.866Z,99255.36
2018-03-08T15:41:56.010Z,99260.78
2018-03-08T15:44:25.120Z,99257.11
2018-03-08T15:46:54.973Z,99249.79
2018-03-08T15:49:24.143Z,99246.96
2018-03-08T15:51:54.003Z,99254.16
2018-03-08T15:54:23.088Z,99248.35
2018-03-08T15:56:52.224Z,99240.86
2018-03-08T15:59:21.335Z,99235.36
2018-03-08T16:01:51.212Z,99232.94
2018-03-08T16:04:20.327Z,99234.27
2018-03-08T16:20:36.379Z,99260.63
2018-03-08T16:23:05.487Z,99260.55
2018-03-08T16:25:34.587Z,99255.94
2018-03-08T16:28:03.702Z,99266.58
2018-03-08T16:30:32.780Z,99271.52
2018-03-08T16:33:01.900Z,99265.89
2018-03-08T16:35:31.743Z,99254.38
2018-03-08T16:38:00.832Z,99256.75
2018-03-08T16:40:29.957Z,99255.81
2018-03-08T16:42:59.051Z,99247.59
2018-03-08T16:45:28.180Z,99254.25
2018-03-08T16:47:57.297Z,99248.97
2018-03-08T16:50:26.448Z,99247.30
2018-03-08T16:52:55.501Z,99255.80
2018-03-08T16:55:24.618Z,99249.48
2018-03-08T16:57:53.710Z,99249.81
2018-03-08T17:00:22.840Z,99263.31
2018-03-08T17:02:51.966Z,99254.91
2018-03-08T17:05:22.585Z,99249.25
2018-03-08T17:07:51.806Z,99244.07
2018-03-08T17:10:21.793Z,99241.96
2018-03-08T17:12:50.925Z,99234.40
2018-03-08T17:15:20.809Z,99241.98
2018-03-08T17:17:49.907Z,99246.68
2018-03-08T17:20:19.028Z,99256.78
2018-03-08T17:22:48.882Z,99257.97
2018-03-08T17:25:18.010Z,99259.36
2018-03-08T17:27:47.118Z,99267.49
2018-03-08T17:30:16.202Z,99270.81
2018-03-08T17:32:45.333Z,99276.30
2018-03-08T17:35:15.201Z,99283.16
2018-03-08T17:37:44.338Z,99278.97
2018-03-08T17:40:13.425Z,99285.00
2018-03-08T17:42:42.536Z,99294.09
2018-03-08T17:45:12.397Z,99294.39
2018-03-08T17:47:41.548Z,99292.92
2018-03-08T17:50:11.402Z,99304.02
2018-03-08T17:52:40.536Z,99308.89
2018-03-08T17:55:09.644Z,99309.43
2018-03-08T17:57:38.758Z,99304.26
2018-03-08T18:00:08.608Z,99309.66
2018-03-08T18:02:37.709Z,99305.13
2018-03-08T18:05:06.845Z,99301.25
2018-03-08T18:07:35.949Z,99300.37
2018-03-08T18:10:05.828Z,99306.92
2018-03-08T18:12:34.924Z,99312.56
2018-03-08T18:15:04.053Z,99310.34
2018-03-08T18:17:33.931Z,99317.01
2018-03-08T18:20:03.779Z,99311.27
2018-03-08T18:22:33.676Z,99312.33
2018-03-08T18:25:02.794Z,99320.38
2018-03-08T18:27:31.909Z,99317.14
2018-03-08T18:30:01.017Z,99322.01
2018-03-08T18:32:30.125Z,99316.83
2018-03-08T18:34:59.212Z,99330.23
2018-03-08T18:37:28.374Z,99330.80
2018-03-08T18:39:58.232Z,99325.16
2018-03-08T18:42:27.330Z,99327.83
2018-03-08T18:44:56.466Z,99337.56
2018-03-08T18:47:25.584Z,99346.44
2018-03-08T18:49:54.697Z,99351.92
2018-03-08T18:52:23.822Z,99364.48
2018-03-08T18:54:52.927Z,99352.86
2018-03-08T18:57:22.029Z,99353.27
2018-03-08T18:59:51.932Z,99356.73
2018-03-08T19:02:21.054Z,99365.11
2018-03-08T19:04:50.194Z,99363.97
2018-03-08T19:07:19.288Z,99359.52
2018-03-08T19:09:48.500Z,99366.38
2018-03-08T19:12:17.621Z,99367.44
2018-03-08T19:14:46.720Z,99366.45
2018-03-08T19:17:15.843Z,99373.38
2018-03-08T19:19:44.964Z,99378.33
2018-03-08T19:22:14.835Z,99376.80
2018-03-08T19:24:43.963Z,99389.25
2018-03-08T19:27:13.836Z,99385.03
2018-03-08T19:29:42.924Z,99380.01
2018-03-08T19:32:12.087Z,99396.08
2018-03-08T19:34:41.198Z,99395.77
2018-03-08T19:37:10.311Z,99394.21
2018-03-08T19:39:39.441Z,99398.05
2018-03-08T19:42:08.562Z,99403.98
2018-03-08T19:44:38.447Z,99403.88
2018-03-08T19:47:07.764Z,99412.52
2018-03-08T19:49:37.641Z,99419.70
2018-03-08T19:52:06.763Z,99419.55
2018-03-08T19:54:35.886Z,99431.44
2018-03-08T19:57:05.791Z,99437.26
2018-03-08T19:59:35.662Z,99444.22
2018-03-08T20:02:04.772Z,99450.73
2018-03-08T20:04:33.873Z,99458.98
2018-03-08T20:07:03.006Z,99459.87
2018-03-08T20:09:32.108Z,99468.13
2018-03-08T20:12:01.214Z,99476.11
2018-03-08T20:14:30.357Z,99479.58
2018-03-08T20:16:59.455Z,99485.20
2018-03-08T20:19:28.578Z,99497.56
2018-03-08T20:21:58.456Z,99498.96
2018-03-08T20:24:27.581Z,99506.94
2018-03-08T20:26:57.482Z,99514.80
2018-03-08T20:29:26.579Z,99518.52
2018-03-08T20:31:55.709Z,99516.30
2018-03-08T20:34:24.845Z,99527.89
2018-03-08T20:36:53.993Z,99542.90
2018-03-08T20:39:23.849Z,99546.08
2018-03-08T20:41:52.975Z,99563.73
2018-03-08T20:44:22.099Z,99574.69
2018-03-08T20:46:51.994Z,99583.22
2018-03-08T20:49:21.115Z,99589.48
2018-03-08T20:51:50.266Z,99600.87
2018-03-08T20:54:19.369Z,99604.80
2018-03-08T20:56:48.505Z,99622.17
2018-03-08T20:59:17.621Z,99624.56
2018-03-08T21:01:46.738Z,99630.58
2018-03-08T21:04:15.895Z,99643.11
2018-03-08T21:06:45.021Z,99648.52
2018-03-08T21:09:14.134Z,99653.97
2018-03-08T21:11:43.275Z,99681.98
2018-03-08T21:14:13.146Z,99680.73
2018-03-08T21:16:43.046Z,99680.06
2018-03-08T21:19:12.948Z,99697.16
2018-03-08T21:21:42.050Z,99703.44
2018-03-08T21:24:11.130Z,99714.39
2018-03-08T21:26:40.228Z,99713.50
2018-03-08T21:29:09.392Z,99713.98
2018-03-08T21:31:38.465Z,99735.94
2018-03-08T21:34:07.578Z,99725.66
2018-03-08T21:36:36.673Z,99721.50
2018-03-08T21:39:05.796Z,99718.44
2018-03-08T21:41:35.665Z,99720.25
2018-03-08T21:44:04.779Z,99732.08
2018-03-08T21:46:33.862Z,99739.97
2018-03-08T21:49:04.477Z,99750.90
2018-03-08T21:51:33.578Z,99771.18
2018-03-08T21:54:02.659Z,99781.96
2018-03-08T21:56:31.800Z,99785.16
2018-03-08T21:59:01.661Z,99788.40
2018-03-08T22:01:30.767Z,99770.20
2018-03-08T22:03:59.879Z,99785.78
2018-03-08T22:06:28.989Z,99787.80
2018-03-08T22:08:58.072Z,99781.59
2018-03-08T22:11:28.698Z,99783.94
2018-03-08T22:13:57.788Z,99785.72
2018-03-08T22:16:27.644Z,99791.77
2018-03-08T22:18:56.760Z,99808.08
2018-03-08T22:21:26.595Z,99810.77
2018-03-08T22:23:55.714Z,99810.23
2018-03-08T22:26:24.800Z,99816.05
2018-03-08T22:28:53.909Z,99811.98
2018-03-08T22:31:22.983Z,99818.33
2018-03-08T22:33:52.109Z,99812.72
2018-03-08T22:36:21.176Z,99811.52
2018-03-08T22:38:50.296Z,99810.16
2018-03-08T22:41:19.392Z,99813.38
2018-03-08T22:43:48.495Z,99815.30
2018-03-08T22:46:17.583Z,99820.89
2018-03-08T22:48:46.674Z,99825.23
2018-03-08T22:51:15.771Z,99831.78
2018-03-08T22:53:44.863Z,99842.27
2018-03-08T22:56:13.957Z,99835.56
2018-03-08T22:58:43.060Z,99830.12
2018-03-08T23:14:57.388Z,99862.34
2018-03-08T23:17:26.475Z,99864.91
2018-03-08T23:19:55.565Z,99861.78
2018-03-08T23:22:24.663Z,99865.84
2018-03-08T23:24:53.752Z,99857.88
2018-03-08T23:27:22.887Z,99851.86
2018-03-08T23:29:51.962Z,99859.56
2018-03-08T23:32:21.058Z,99855.58
2018-03-08T23:34:50.154Z,99854.77
2018-03-08T23:37:19.254Z,99848.52
2018-03-08T23:39:48.334Z,99866.08
2018-03-08T23:42:17.457Z,99866.41
2018-03-08T23:44:46.569Z,99867.04
2018-03-08T23:47:15.649Z,99866.47
2018-03-08T23:49:44.774Z,99872.67
2018-03-08T23:52:13.846Z,99893.87
2018-03-08T23:54:42.966Z,99895.80
2018-03-08T23:57:12.820Z,99886.43
2018-03-08T23:59:41.914Z,99868.89
